Naniwa Maru No.1 — JD3716 — position and weather

sailwx.info

Track history (hours):
 
Tides and Currents Weather Stations Pressure Air Temp Water Temp Dewpoint Dewpoint Depression Visibility Wind Speed Wind Dir Waves Ship Positions

Naniwa Maru No.1

Last reported at 2018-Apr-22 12:00 UTC. Time now 2018-Apr-22 12:07 UTC.
Position N 35°32' E 140°03'.

Length 105 m; draft 6.6 m.

Type: Tanker. MMSI: 431005655.

Date/timePositionNaut miles runAvg speedWind from/ knotsBaromVisibWave heightAir tempDewpointWater temp
2018-Apr-22 12:00N 35°32' E 140°03'0 0.0
2018-Apr-22 11:30N 35°32' E 140°03'0 0.1
2018-Apr-22 11:00N 35°32' E 140°03'0 0.1
2018-Apr-22 10:30N 35°32' E 140°03'0 0.1
2018-Apr-22 10:00N 35°32' E 140°03'0 0.0
2018-Apr-22 09:28N 35°32' E 140°03'0 0.0
2018-Apr-22 09:00N 35°32' E 140°03'0 0.1
2018-Apr-22 08:30N 35°32' E 140°03'0 0.1
2018-Apr-22 08:00N 35°32' E 140°03'0 0.0
2018-Apr-22 07:30N 35°32' E 140°03'0 0.1
2018-Apr-22 07:00N 35°32' E 140°03'0 0.0
2018-Apr-22 06:30N 35°32' E 140°03'0 0.1
2018-Apr-22 06:00N 35°32' E 140°03'1 1.1
2018-Apr-22 05:30N 35°32' E 140°03'4 7.5
2018-Apr-22 05:00N 35°36' E 140°04'1 1.0
2018-Apr-22 04:30N 35°36' E 140°05'0 0.0
2018-Apr-22 04:00N 35°36' E 140°05'0 0.0
2018-Apr-22 03:30N 35°36' E 140°05'0 0.0
2018-Apr-22 03:00N 35°36' E 140°05'0 0.0
2018-Apr-22 02:30N 35°36' E 140°05'0 0.0
2018-Apr-22 02:00N 35°36' E 140°05'0 0.0
2018-Apr-22 01:30N 35°36' E 140°05'0 0.0
2018-Apr-22 01:00N 35°36' E 140°05'0 0.0
2018-Apr-22 00:30N 35°36' E 140°05'0 0.0
2018-Apr-22 00:00N 35°36' E 140°05'0 0.1
2018-Apr-21 23:30N 35°36' E 140°05'2 4.7
2018-Apr-21 23:00N 35°35' E 140°02'3 6.7
2018-Apr-21 22:30N 35°34' E 139°58'0 0.0
2018-Apr-21 21:43N 35°34' E 139°58'0 0.0
2018-Apr-21 21:25N 35°34' E 139°58'0 0.0
2018-Apr-21 20:55N 35°34' E 139°58'0 0.0
2018-Apr-21 20:22N 35°34' E 139°58'0 0.0
2018-Apr-21 19:55N 35°34' E 139°58'0 0.0
2018-Apr-21 19:25N 35°34' E 139°58'0 0.0
2018-Apr-21 18:49N 35°34' E 139°58'0 0.0
2018-Apr-21 18:28N 35°34' E 139°58'0 0.0
2018-Apr-21 17:58N 35°34' E 139°58'0 0.0
2018-Apr-21 17:28N 35°34' E 139°58'0 0.0
2018-Apr-21 16:58N 35°34' E 139°58'0 0.0
2018-Apr-21 16:28N 35°34' E 139°58'0 0.0
2018-Apr-21 15:58N 35°34' E 139°58'0 0.0
2018-Apr-21 15:25N 35°34' E 139°58'0 0.0
2018-Apr-21 14:55N 35°34' E 139°58'0 0.0
2018-Apr-21 14:25N 35°34' E 139°58'0 0.0
2018-Apr-21 13:58N 35°34' E 139°58'0 0.0
2018-Apr-21 13:25N 35°34' E 139°58'0 0.0
2018-Apr-21 12:55N 35°34' E 139°58'0 0.0
2018-Apr-21 12:25N 35°34' E 139°58'0 0.0
2018-Apr-21 11:55N 35°34' E 139°58'0 0.0
2018-Apr-21 11:25N 35°34' E 139°58'0 0.0
2018-Apr-21 10:49N 35°34' E 139°58'0 0.0
2018-Apr-21 10:28N 35°34' E 139°58'0 0.0
2018-Apr-21 09:55N 35°34' E 139°58'0 0.0
2018-Apr-21 09:25N 35°34' E 139°58'0 0.0
2018-Apr-21 08:55N 35°34' E 139°58'0 0.0
2018-Apr-21 08:25N 35°34' E 139°58'0 0.0
2018-Apr-21 07:58N 35°34' E 139°58'0 0.0
2018-Apr-21 07:28N 35°34' E 139°58'0 0.0
2018-Apr-21 06:55N 35°34' E 139°58'0 0.6
2018-Apr-21 06:30N 35°34' E 139°58'5 9.3
2018-Apr-21 06:00N 35°32' E 140°03'0 0.2
2018-Apr-21 05:30N 35°32' E 140°03'0 0.0
2018-Apr-21 04:58N 35°32' E 140°03'0 0.0
2018-Apr-21 04:27N 35°32' E 140°03'0 0.0
2018-Apr-20 23:37N 35°32' E 140°03'0 2.2
2018-Apr-20 23:31N 35°32' E 140°03'510.3
2018-Apr-20 23:00N 35°32' E 139°57'1 2.6
2018-Apr-20 22:30N 35°32' E 139°55'0 0.0
2018-Apr-20 21:59N 35°32' E 139°55'0 0.0
2018-Apr-20 21:29N 35°32' E 139°55'0 0.0
2018-Apr-20 20:59N 35°32' E 139°55'0 0.0
2018-Apr-20 20:29N 35°32' E 139°55'0 0.0
2018-Apr-20 19:59N 35°32' E 139°55'0 0.0
2018-Apr-20 19:29N 35°32' E 139°55'0 0.0
2018-Apr-20 18:59N 35°32' E 139°55'0 0.0
2018-Apr-20 18:23N 35°32' E 139°55'0 0.0
2018-Apr-20 17:59N 35°32' E 139°55'0 0.0
2018-Apr-20 17:29N 35°32' E 139°55'0 0.0
2018-Apr-20 16:56N 35°32' E 139°55'0 0.0
2018-Apr-20 16:26N 35°32' E 139°55'0 0.0
2018-Apr-20 15:59N 35°32' E 139°55'0 0.0
2018-Apr-20 15:29N 35°32' E 139°55'0 0.0
2018-Apr-20 14:59N 35°32' E 139°55'0 0.0
2018-Apr-20 14:23N 35°32' E 139°55'0 0.1
2018-Apr-20 13:59N 35°32' E 139°55'0 0.0
2018-Apr-20 13:26N 35°32' E 139°55'0 0.0
2018-Apr-20 12:47N 35°32' E 139°55'0 0.0
2018-Apr-20 12:26N 35°32' E 139°55'0 0.0
2018-Apr-20 11:59N 35°32' E 139°55'0 0.0
2018-Apr-20 11:29N 35°32' E 139°55'2 4.2
2018-Apr-20 11:00N 35°32' E 139°57'5 9.7
2018-Apr-20 10:31N 35°32' E 140°03'0 0.0
2018-Apr-20 09:59N 35°32' E 140°03'0 0.0
2018-Apr-20 05:56N 35°32' E 140°03'0 0.0
2018-Apr-20 04:38N 35°32' E 140°03'0 1.4
2018-Apr-20 04:30N 35°32' E 140°03'611.1
2018-Apr-20 04:00N 35°30' E 139°57'713.6
2018-Apr-20 03:31N 35°27' E 139°50'612.9
2018-Apr-20 03:00N 35°22' E 139°45'611.4
2018-Apr-20 02:30N 35°16' E 139°46'612.6
2018-Apr-20 02:00N 35°10' E 139°46'713.2
2018-Apr-20 01:28N 35°04' E 139°41'614.0
2018-Apr-20 01:00N 34°59' E 139°36'815.0
2018-Apr-20 00:30N 34°55' E 139°28'715.0
2018-Apr-20 00:00N 34°51' E 139°21'714.4
2018-Apr-19 23:30N 34°45' E 139°15'714.7
2018-Apr-19 23:00N 34°40' E 139°08'714.1
2018-Apr-19 22:30N 34°35' E 139°02'714.2
2018-Apr-19 22:00N 34°31' E 138°55'814.9
2018-Apr-19 21:27N 34°31' E 138°45'714.8
2018-Apr-19 20:59N 34°31' E 138°37'915.0
2018-Apr-19 20:24N 34°31' E 138°26'714.4
2018-Apr-19 19:55N 34°32' E 138°18'614.0
2018-Apr-19 19:28N 34°32' E 138°10'814.4
2018-Apr-19 18:54N 34°32' E 138°00'814.7
2018-Apr-19 18:22N 34°32' E 137°51'3014.1
2018-Apr-19 16:16N 34°32' E 137°15'1713.7
2018-Apr-19 14:59N 34°37' E 136°55'714.9
2018-Apr-19 14:30N 34°42' E 136°48'814.9
2018-Apr-19 14:00N 34°49' E 136°45'714.6
2018-Apr-19 13:31N 34°55' E 136°41'3 5.8
2018-Apr-19 13:00N 34°58' E 136°39'0 0.0
2018-Apr-19 12:31N 34°58' E 136°39'0 0.0
2018-Apr-19 11:45N 34°58' E 136°39'0 0.0
2018-Apr-19 11:27N 34°58' E 136°39'0 0.0
2018-Apr-19 11:00N 34°58' E 136°39'0 0.0
2018-Apr-19 10:30N 34°58' E 136°39'0 0.0
2018-Apr-19 09:57N 34°58' E 136°39'0 0.0
2018-Apr-19 09:27N 34°58' E 136°39'0 0.0
2018-Apr-19 09:00N 34°58' E 136°39'0 0.0
2018-Apr-19 08:24N 34°58' E 136°39'0 0.0
2018-Apr-19 08:00N 34°58' E 136°39'0 0.0
2018-Apr-19 07:27N 34°58' E 136°39'0 0.0
2018-Apr-19 07:00N 34°58' E 136°39'0 0.0
2018-Apr-19 06:30N 34°58' E 136°39'0 0.2
2018-Apr-19 05:57N 34°58' E 136°39'1 2.0
2018-Apr-19 05:30N 34°57' E 136°40'3 6.6
2018-Apr-19 05:00N 34°54' E 136°42'1 2.3
2018-Apr-19 04:30N 34°53' E 136°41'0 0.0
2018-Apr-19 03:59N 34°53' E 136°41'0 0.0
2018-Apr-19 03:29N 34°53' E 136°41'0 0.0
2018-Apr-19 02:59N 34°53' E 136°41'0 0.0
2018-Apr-19 02:29N 34°53' E 136°41'0 0.1
2018-Apr-19 01:59N 34°53' E 136°42'1 1.7
2018-Apr-19 01:30N 34°52' E 136°42'714.7
2018-Apr-19 01:01N 34°45' E 136°46'714.6
2018-Apr-19 00:30N 34°40' E 136°52'814.6
2018-Apr-18 23:57N 34°35' E 136°59'712.5
2018-Apr-18 23:22N 34°28' E 137°02'5013.8
2018-Apr-18 19:44N 33°48' E 136°26'414.2
2018-Apr-18 19:29N 33°46' E 136°22'5113.0
2018-Apr-18 15:34N 33°30' E 135°24'2315.1
2018-Apr-18 14:04N 33°46' E 135°05'115.0
2018-Apr-18 14:00N 33°46' E 135°04'815.4
2018-Apr-18 13:30N 33°53' E 134°58'714.9
2018-Apr-18 13:00N 33°60' E 134°58'714.8
2018-Apr-18 12:31N 34°07' E 134°58'815.0
2018-Apr-18 12:00N 34°15' E 134°58'713.2
2018-Apr-18 11:31N 34°21' E 134°59'714.1
2018-Apr-18 11:00N 34°28' E 135°01'713.5
2018-Apr-18 10:31N 34°35' E 135°03'510.3
2018-Apr-18 10:01N 34°36' E 134°57'815.4
2018-Apr-18 09:30N 34°33' E 134°48'815.5
2018-Apr-18 09:00N 34°30' E 134°39'815.4
2018-Apr-18 08:30N 34°27' E 134°31'815.5
2018-Apr-18 08:00N 34°24' E 134°22'7 0.6
2018-Apr-17 20:31N 34°24' E 134°14'013.1
2018-Apr-17 20:29N 34°24' E 134°14'713.7
2018-Apr-17 20:00N 34°25' E 134°22'714.3
2018-Apr-17 19:30N 34°28' E 134°30'714.1
2018-Apr-17 19:01N 34°30' E 134°38'713.7
2018-Apr-17 18:31N 34°33' E 134°46'612.9
2018-Apr-17 18:01N 34°35' E 134°53'611.8
2018-Apr-17 17:30N 34°38' E 134°60'511.0
2018-Apr-17 17:00N 34°35' E 135°05'714.1
2018-Apr-17 16:30N 34°28' E 135°04'714.0
2018-Apr-17 16:00N 34°21' E 135°02'612.5
2018-Apr-17 15:30N 34°15' E 134°60'714.2
2018-Apr-17 15:00N 34°09' E 135°05'3 6.1
2018-Apr-17 14:31N 34°07' E 135°07'0 0.0
2018-Apr-17 14:00N 34°07' E 135°07'0 0.0
2018-Apr-17 07:24N 34°07' E 135°07'2 4.4
2018-Apr-17 07:01N 34°08' E 135°06'816.2
2018-Apr-17 06:30N 34°15' E 135°00'714.8
2018-Apr-17 06:01N 34°22' E 135°02'815.8
2018-Apr-17 05:31N 34°25' E 135°11'3 5.9
2018-Apr-17 05:00N 34°25' E 135°14'0 0.1
2018-Apr-17 04:30N 34°25' E 135°14'0 0.0
2018-Apr-17 04:00N 34°25' E 135°14'0 0.0
2018-Apr-17 03:30N 34°25' E 135°14'0 0.0
2018-Apr-17 03:00N 34°25' E 135°14'0 0.0
2018-Apr-17 02:25N 34°25' E 135°14'0 0.0
2018-Apr-17 01:58N 34°25' E 135°14'0 0.0
2018-Apr-17 01:28N 34°25' E 135°14'0 0.0
2018-Apr-17 00:55N 34°25' E 135°14'0 0.1
2018-Apr-17 00:28N 34°25' E 135°14'1 2.9
2018-Apr-17 00:00N 34°24' E 135°13'3 5.4
2018-Apr-16 23:30N 34°26' E 135°11'611.4
2018-Apr-16 23:00N 34°29' E 135°16'4 7.9
2018-Apr-16 22:30N 34°32' E 135°20'0 0.1
2018-Apr-16 22:00N 34°32' E 135°20'0 0.1
2018-Apr-16 21:30N 34°32' E 135°20'0 0.0
2018-Apr-16 21:00N 34°32' E 135°20'0 0.0
2018-Apr-16 20:30N 34°32' E 135°20'0 0.0
2018-Apr-16 20:00N 34°32' E 135°20'0 0.0
2018-Apr-16 19:30N 34°32' E 135°20'0 0.0
2018-Apr-16 19:00N 34°32' E 135°20'0 0.0
2018-Apr-16 18:30N 34°32' E 135°20'0 0.0
2018-Apr-16 18:00N 34°32' E 135°20'0 0.0
2018-Apr-16 17:30N 34°32' E 135°20'0 0.0
2018-Apr-16 17:00N 34°32' E 135°20'0 0.0
2018-Apr-16 16:30N 34°32' E 135°20'0 0.0
2018-Apr-16 16:00N 34°32' E 135°20'0 0.0
2018-Apr-16 15:30N 34°32' E 135°20'0 0.1
2018-Apr-16 15:00N 34°32' E 135°20'0 0.1
2018-Apr-16 14:30N 34°32' E 135°20'0 0.0
2018-Apr-16 14:00N 34°32' E 135°20'0 0.0
2018-Apr-16 13:30N 34°32' E 135°20'0 0.1
2018-Apr-16 13:01N 34°32' E 135°20'4 8.4
2018-Apr-16 12:30N 34°36' E 135°21'4 7.1
2018-Apr-16 12:00N 34°35' E 135°26'0 0.1
2018-Apr-16 11:30N 34°35' E 135°26'0 0.0
2018-Apr-16 10:55N 34°35' E 135°26'0 0.0
2018-Apr-16 10:25N 34°35' E 135°26'0 0.0
2018-Apr-16 09:58N 34°35' E 135°26'0 0.0
2018-Apr-16 09:28N 34°35' E 135°26'0 0.0
2018-Apr-16 08:58N 34°35' E 135°26'0 0.0
2018-Apr-16 08:28N 34°35' E 135°26'0 0.0
2018-Apr-16 07:58N 34°35' E 135°26'0 0.0
2018-Apr-16 07:28N 34°35' E 135°26'0 0.0
2018-Apr-16 06:58N 34°35' E 135°26'0 0.0
2018-Apr-16 06:28N 34°35' E 135°26'0 0.0
2018-Apr-16 05:55N 34°35' E 135°26'0 0.0
2018-Apr-16 05:28N 34°35' E 135°26'0 0.0
2018-Apr-16 04:58N 34°35' E 135°26'0 0.0
2018-Apr-16 04:28N 34°35' E 135°26'0 0.0
2018-Apr-16 03:58N 34°35' E 135°26'0 0.1
2018-Apr-16 03:29N 34°35' E 135°26'3 5.4
2018-Apr-16 03:00N 34°36' E 135°23'713.5
2018-Apr-16 02:30N 34°36' E 135°15'815.1
2018-Apr-16 02:01N 34°35' E 135°06'714.5
2018-Apr-16 01:30N 34°36' E 134°58'714.3
2018-Apr-16 01:00N 34°34' E 134°50'714.4
2018-Apr-16 00:30N 34°31' E 134°42'714.9
2018-Apr-16 00:01N 34°28' E 134°33'714.9
2018-Apr-15 23:31N 34°25' E 134°25'714.5
2018-Apr-15 23:00N 34°23' E 134°16'7512.1
2018-Apr-15 16:50N 34°04' E 132°49'513.6
2018-Apr-15 16:29N 34°00' E 132°45'613.4
2018-Apr-15 16:00N 33°55' E 132°40'713.8
2018-Apr-15 15:29N 33°51' E 132°34'714.2
2018-Apr-15 15:00N 33°47' E 132°27'714.5
2018-Apr-15 14:30N 33°44' E 132°19'1414.7
2018-Apr-15 13:35N 33°42' E 132°03'116.1
2018-Apr-15 13:30N 33°42' E 132°02'815.7
2018-Apr-15 13:00N 33°44' E 131°52'815.6
2018-Apr-15 12:30N 33°46' E 131°43'815.4
2018-Apr-15 12:00N 33°47' E 131°34'815.2
2018-Apr-15 11:30N 33°48' E 131°25'714.9
2018-Apr-15 11:00N 33°50' E 131°16'714.5
2018-Apr-15 10:31N 33°53' E 131°09'714.5
2018-Apr-15 10:00N 33°58' E 131°02'611.9
2018-Apr-15 09:30N 33°55' E 130°56'611.1
2018-Apr-15 09:01N 33°60' E 130°52'815.6
2018-Apr-15 08:31N 34°07' E 130°50'815.5
2018-Apr-15 08:00N 34°15' E 130°48'714.9
2018-Apr-15 07:31N 34°22' E 130°47'  
Track history (hours):
 
Tides and Currents Weather Stations Pressure Air Temp Water Temp Dewpoint Dewpoint Depression Visibility Wind Speed Wind Dir Waves Ship Positions

Naniwa Maru No.1

Last reported at 2018-Apr-22 12:00 UTC. Time now 2018-Apr-22 12:07 UTC.
Position N 35°32' E 140°03'.

Length 105 m; draft 6.6 m.

Type: Tanker. MMSI: 431005655.

Date/timePositionNaut miles runAvg speedWind from/ knotsBaromVisibWave heightAir tempDewpointWater temp
2018-Apr-22 12:00N 35°32' E 140°03'0 0.0
2018-Apr-22 11:30N 35°32' E 140°03'0 0.1
2018-Apr-22 11:00N 35°32' E 140°03'0 0.1
2018-Apr-22 10:30N 35°32' E 140°03'0 0.1
2018-Apr-22 10:00N 35°32' E 140°03'0 0.0
2018-Apr-22 09:28N 35°32' E 140°03'0 0.0
2018-Apr-22 09:00N 35°32' E 140°03'0 0.1
2018-Apr-22 08:30N 35°32' E 140°03'0 0.1
2018-Apr-22 08:00N 35°32' E 140°03'0 0.0
2018-Apr-22 07:30N 35°32' E 140°03'0 0.1
2018-Apr-22 07:00N 35°32' E 140°03'0 0.0
2018-Apr-22 06:30N 35°32' E 140°03'0 0.1
2018-Apr-22 06:00N 35°32' E 140°03'1 1.1
2018-Apr-22 05:30N 35°32' E 140°03'4 7.5
2018-Apr-22 05:00N 35°36' E 140°04'1 1.0
2018-Apr-22 04:30N 35°36' E 140°05'0 0.0
2018-Apr-22 04:00N 35°36' E 140°05'0 0.0
2018-Apr-22 03:30N 35°36' E 140°05'0 0.0
2018-Apr-22 03:00N 35°36' E 140°05'0 0.0
2018-Apr-22 02:30N 35°36' E 140°05'0 0.0
2018-Apr-22 02:00N 35°36' E 140°05'0 0.0
2018-Apr-22 01:30N 35°36' E 140°05'0 0.0
2018-Apr-22 01:00N 35°36' E 140°05'0 0.0
2018-Apr-22 00:30N 35°36' E 140°05'0 0.0
2018-Apr-22 00:00N 35°36' E 140°05'0 0.1
2018-Apr-21 23:30N 35°36' E 140°05'2 4.7
2018-Apr-21 23:00N 35°35' E 140°02'3 6.7
2018-Apr-21 22:30N 35°34' E 139°58'0 0.0
2018-Apr-21 21:43N 35°34' E 139°58'0 0.0
2018-Apr-21 21:25N 35°34' E 139°58'0 0.0
2018-Apr-21 20:55N 35°34' E 139°58'0 0.0
2018-Apr-21 20:22N 35°34' E 139°58'0 0.0
2018-Apr-21 19:55N 35°34' E 139°58'0 0.0
2018-Apr-21 19:25N 35°34' E 139°58'0 0.0
2018-Apr-21 18:49N 35°34' E 139°58'0 0.0
2018-Apr-21 18:28N 35°34' E 139°58'0 0.0
2018-Apr-21 17:58N 35°34' E 139°58'0 0.0
2018-Apr-21 17:28N 35°34' E 139°58'0 0.0
2018-Apr-21 16:58N 35°34' E 139°58'0 0.0
2018-Apr-21 16:28N 35°34' E 139°58'0 0.0
2018-Apr-21 15:58N 35°34' E 139°58'0 0.0
2018-Apr-21 15:25N 35°34' E 139°58'0 0.0
2018-Apr-21 14:55N 35°34' E 139°58'0 0.0
2018-Apr-21 14:25N 35°34' E 139°58'0 0.0
2018-Apr-21 13:58N 35°34' E 139°58'0 0.0
2018-Apr-21 13:25N 35°34' E 139°58'0 0.0
2018-Apr-21 12:55N 35°34' E 139°58'0 0.0
2018-Apr-21 12:25N 35°34' E 139°58'0 0.0
2018-Apr-21 11:55N 35°34' E 139°58'0 0.0
2018-Apr-21 11:25N 35°34' E 139°58'0 0.0
2018-Apr-21 10:49N 35°34' E 139°58'0 0.0
2018-Apr-21 10:28N 35°34' E 139°58'0 0.0
2018-Apr-21 09:55N 35°34' E 139°58'0 0.0
2018-Apr-21 09:25N 35°34' E 139°58'0 0.0
2018-Apr-21 08:55N 35°34' E 139°58'0 0.0
2018-Apr-21 08:25N 35°34' E 139°58'0 0.0
2018-Apr-21 07:58N 35°34' E 139°58'0 0.0
2018-Apr-21 07:28N 35°34' E 139°58'0 0.0
2018-Apr-21 06:55N 35°34' E 139°58'0 0.6
2018-Apr-21 06:30N 35°34' E 139°58'5 9.3
2018-Apr-21 06:00N 35°32' E 140°03'0 0.2
2018-Apr-21 05:30N 35°32' E 140°03'0 0.0
2018-Apr-21 04:58N 35°32' E 140°03'0 0.0
2018-Apr-21 04:27N 35°32' E 140°03'0 0.0
2018-Apr-20 23:37N 35°32' E 140°03'0 2.2
2018-Apr-20 23:31N 35°32' E 140°03'510.3
2018-Apr-20 23:00N 35°32' E 139°57'1 2.6
2018-Apr-20 22:30N 35°32' E 139°55'0 0.0
2018-Apr-20 21:59N 35°32' E 139°55'0 0.0
2018-Apr-20 21:29N 35°32' E 139°55'0 0.0
2018-Apr-20 20:59N 35°32' E 139°55'0 0.0
2018-Apr-20 20:29N 35°32' E 139°55'0 0.0
2018-Apr-20 19:59N 35°32' E 139°55'0 0.0
2018-Apr-20 19:29N 35°32' E 139°55'0 0.0
2018-Apr-20 18:59N 35°32' E 139°55'0 0.0
2018-Apr-20 18:23N 35°32' E 139°55'0 0.0
2018-Apr-20 17:59N 35°32' E 139°55'0 0.0
2018-Apr-20 17:29N 35°32' E 139°55'0 0.0
2018-Apr-20 16:56N 35°32' E 139°55'0 0.0
2018-Apr-20 16:26N 35°32' E 139°55'0 0.0
2018-Apr-20 15:59N 35°32' E 139°55'0 0.0
2018-Apr-20 15:29N 35°32' E 139°55'0 0.0
2018-Apr-20 14:59N 35°32' E 139°55'0 0.0
2018-Apr-20 14:23N 35°32' E 139°55'0 0.1
2018-Apr-20 13:59N 35°32' E 139°55'0 0.0
2018-Apr-20 13:26N 35°32' E 139°55'0 0.0
2018-Apr-20 12:47N 35°32' E 139°55'0 0.0
2018-Apr-20 12:26N 35°32' E 139°55'0 0.0
2018-Apr-20 11:59N 35°32' E 139°55'0 0.0
2018-Apr-20 11:29N 35°32' E 139°55'2 4.2
2018-Apr-20 11:00N 35°32' E 139°57'5 9.7
2018-Apr-20 10:31N 35°32' E 140°03'0 0.0
2018-Apr-20 09:59N 35°32' E 140°03'0 0.0
2018-Apr-20 05:56N 35°32' E 140°03'0 0.0
2018-Apr-20 04:38N 35°32' E 140°03'0 1.4
2018-Apr-20 04:30N 35°32' E 140°03'611.1
2018-Apr-20 04:00N 35°30' E 139°57'713.6
2018-Apr-20 03:31N 35°27' E 139°50'612.9
2018-Apr-20 03:00N 35°22' E 139°45'611.4
2018-Apr-20 02:30N 35°16' E 139°46'612.6
2018-Apr-20 02:00N 35°10' E 139°46'713.2
2018-Apr-20 01:28N 35°04' E 139°41'614.0
2018-Apr-20 01:00N 34°59' E 139°36'815.0
2018-Apr-20 00:30N 34°55' E 139°28'715.0
2018-Apr-20 00:00N 34°51' E 139°21'714.4
2018-Apr-19 23:30N 34°45' E 139°15'714.7
2018-Apr-19 23:00N 34°40' E 139°08'714.1
2018-Apr-19 22:30N 34°35' E 139°02'714.2
2018-Apr-19 22:00N 34°31' E 138°55'814.9
2018-Apr-19 21:27N 34°31' E 138°45'714.8
2018-Apr-19 20:59N 34°31' E 138°37'915.0
2018-Apr-19 20:24N 34°31' E 138°26'714.4
2018-Apr-19 19:55N 34°32' E 138°18'614.0
2018-Apr-19 19:28N 34°32' E 138°10'814.4
2018-Apr-19 18:54N 34°32' E 138°00'814.7
2018-Apr-19 18:22N 34°32' E 137°51'3014.1
2018-Apr-19 16:16N 34°32' E 137°15'1713.7
2018-Apr-19 14:59N 34°37' E 136°55'714.9
2018-Apr-19 14:30N 34°42' E 136°48'814.9
2018-Apr-19 14:00N 34°49' E 136°45'714.6
2018-Apr-19 13:31N 34°55' E 136°41'3 5.8
2018-Apr-19 13:00N 34°58' E 136°39'0 0.0
2018-Apr-19 12:31N 34°58' E 136°39'0 0.0
2018-Apr-19 11:45N 34°58' E 136°39'0 0.0
2018-Apr-19 11:27N 34°58' E 136°39'0 0.0
2018-Apr-19 11:00N 34°58' E 136°39'0 0.0
2018-Apr-19 10:30N 34°58' E 136°39'0 0.0
2018-Apr-19 09:57N 34°58' E 136°39'0 0.0
2018-Apr-19 09:27N 34°58' E 136°39'0 0.0
2018-Apr-19 09:00N 34°58' E 136°39'0 0.0
2018-Apr-19 08:24N 34°58' E 136°39'0 0.0
2018-Apr-19 08:00N 34°58' E 136°39'0 0.0
2018-Apr-19 07:27N 34°58' E 136°39'0 0.0
2018-Apr-19 07:00N 34°58' E 136°39'0 0.0
2018-Apr-19 06:30N 34°58' E 136°39'0 0.2
2018-Apr-19 05:57N 34°58' E 136°39'1 2.0
2018-Apr-19 05:30N 34°57' E 136°40'3 6.6
2018-Apr-19 05:00N 34°54' E 136°42'1 2.3
2018-Apr-19 04:30N 34°53' E 136°41'0 0.0
2018-Apr-19 03:59N 34°53' E 136°41'0 0.0
2018-Apr-19 03:29N 34°53' E 136°41'0 0.0
2018-Apr-19 02:59N 34°53' E 136°41'0 0.0
2018-Apr-19 02:29N 34°53' E 136°41'0 0.1
2018-Apr-19 01:59N 34°53' E 136°42'1 1.7
2018-Apr-19 01:30N 34°52' E 136°42'714.7
2018-Apr-19 01:01N 34°45' E 136°46'714.6
2018-Apr-19 00:30N 34°40' E 136°52'814.6
2018-Apr-18 23:57N 34°35' E 136°59'712.5
2018-Apr-18 23:22N 34°28' E 137°02'5013.8
2018-Apr-18 19:44N 33°48' E 136°26'414.2
2018-Apr-18 19:29N 33°46' E 136°22'5113.0
2018-Apr-18 15:34N 33°30' E 135°24'2315.1
2018-Apr-18 14:04N 33°46' E 135°05'115.0
2018-Apr-18 14:00N 33°46' E 135°04'815.4
2018-Apr-18 13:30N 33°53' E 134°58'714.9
2018-Apr-18 13:00N 33°60' E 134°58'714.8
2018-Apr-18 12:31N 34°07' E 134°58'815.0
2018-Apr-18 12:00N 34°15' E 134°58'713.2
2018-Apr-18 11:31N 34°21' E 134°59'714.1
2018-Apr-18 11:00N 34°28' E 135°01'713.5
2018-Apr-18 10:31N 34°35' E 135°03'510.3
2018-Apr-18 10:01N 34°36' E 134°57'815.4
2018-Apr-18 09:30N 34°33' E 134°48'815.5
2018-Apr-18 09:00N 34°30' E 134°39'815.4
2018-Apr-18 08:30N 34°27' E 134°31'815.5
2018-Apr-18 08:00N 34°24' E 134°22'7 0.6
2018-Apr-17 20:31N 34°24' E 134°14'013.1
2018-Apr-17 20:29N 34°24' E 134°14'713.7
2018-Apr-17 20:00N 34°25' E 134°22'714.3
2018-Apr-17 19:30N 34°28' E 134°30'714.1
2018-Apr-17 19:01N 34°30' E 134°38'713.7
2018-Apr-17 18:31N 34°33' E 134°46'612.9
2018-Apr-17 18:01N 34°35' E 134°53'611.8
2018-Apr-17 17:30N 34°38' E 134°60'511.0
2018-Apr-17 17:00N 34°35' E 135°05'714.1
2018-Apr-17 16:30N 34°28' E 135°04'714.0
2018-Apr-17 16:00N 34°21' E 135°02'612.5
2018-Apr-17 15:30N 34°15' E 134°60'714.2
2018-Apr-17 15:00N 34°09' E 135°05'3 6.1
2018-Apr-17 14:31N 34°07' E 135°07'0 0.0
2018-Apr-17 14:00N 34°07' E 135°07'0 0.0
2018-Apr-17 07:24N 34°07' E 135°07'2 4.4
2018-Apr-17 07:01N 34°08' E 135°06'816.2
2018-Apr-17 06:30N 34°15' E 135°00'714.8
2018-Apr-17 06:01N 34°22' E 135°02'815.8
2018-Apr-17 05:31N 34°25' E 135°11'3 5.9
2018-Apr-17 05:00N 34°25' E 135°14'0 0.1
2018-Apr-17 04:30N 34°25' E 135°14'0 0.0
2018-Apr-17 04:00N 34°25' E 135°14'0 0.0
2018-Apr-17 03:30N 34°25' E 135°14'0 0.0
2018-Apr-17 03:00N 34°25' E 135°14'0 0.0
2018-Apr-17 02:25N 34°25' E 135°14'0 0.0
2018-Apr-17 01:58N 34°25' E 135°14'0 0.0
2018-Apr-17 01:28N 34°25' E 135°14'0 0.0
2018-Apr-17 00:55N 34°25' E 135°14'0 0.1
2018-Apr-17 00:28N 34°25' E 135°14'1 2.9
2018-Apr-17 00:00N 34°24' E 135°13'3 5.4
2018-Apr-16 23:30N 34°26' E 135°11'611.4
2018-Apr-16 23:00N 34°29' E 135°16'4 7.9
2018-Apr-16 22:30N 34°32' E 135°20'0 0.1
2018-Apr-16 22:00N 34°32' E 135°20'0 0.1
2018-Apr-16 21:30N 34°32' E 135°20'0 0.0
2018-Apr-16 21:00N 34°32' E 135°20'0 0.0
2018-Apr-16 20:30N 34°32' E 135°20'0 0.0
2018-Apr-16 20:00N 34°32' E 135°20'0 0.0
2018-Apr-16 19:30N 34°32' E 135°20'0 0.0
2018-Apr-16 19:00N 34°32' E 135°20'0 0.0
2018-Apr-16 18:30N 34°32' E 135°20'0 0.0
2018-Apr-16 18:00N 34°32' E 135°20'0 0.0
2018-Apr-16 17:30N 34°32' E 135°20'0 0.0
2018-Apr-16 17:00N 34°32' E 135°20'0 0.0
2018-Apr-16 16:30N 34°32' E 135°20'0 0.0
2018-Apr-16 16:00N 34°32' E 135°20'0 0.0
2018-Apr-16 15:30N 34°32' E 135°20'0 0.1
2018-Apr-16 15:00N 34°32' E 135°20'0 0.1
2018-Apr-16 14:30N 34°32' E 135°20'0 0.0
2018-Apr-16 14:00N 34°32' E 135°20'0 0.0
2018-Apr-16 13:30N 34°32' E 135°20'0 0.1
2018-Apr-16 13:01N 34°32' E 135°20'4 8.4
2018-Apr-16 12:30N 34°36' E 135°21'4 7.1
2018-Apr-16 12:00N 34°35' E 135°26'0 0.1
2018-Apr-16 11:30N 34°35' E 135°26'0 0.0
2018-Apr-16 10:55N 34°35' E 135°26'0 0.0
2018-Apr-16 10:25N 34°35' E 135°26'0 0.0
2018-Apr-16 09:58N 34°35' E 135°26'0 0.0
2018-Apr-16 09:28N 34°35' E 135°26'0 0.0
2018-Apr-16 08:58N 34°35' E 135°26'0 0.0
2018-Apr-16 08:28N 34°35' E 135°26'0 0.0
2018-Apr-16 07:58N 34°35' E 135°26'0 0.0
2018-Apr-16 07:28N 34°35' E 135°26'0 0.0
2018-Apr-16 06:58N 34°35' E 135°26'0 0.0
2018-Apr-16 06:28N 34°35' E 135°26'0 0.0
2018-Apr-16 05:55N 34°35' E 135°26'0 0.0
2018-Apr-16 05:28N 34°35' E 135°26'0 0.0
2018-Apr-16 04:58N 34°35' E 135°26'0 0.0
2018-Apr-16 04:28N 34°35' E 135°26'0 0.0
2018-Apr-16 03:58N 34°35' E 135°26'0 0.1
2018-Apr-16 03:29N 34°35' E 135°26'3 5.4
2018-Apr-16 03:00N 34°36' E 135°23'713.5
2018-Apr-16 02:30N 34°36' E 135°15'815.1
2018-Apr-16 02:01N 34°35' E 135°06'714.5
2018-Apr-16 01:30N 34°36' E 134°58'714.3
2018-Apr-16 01:00N 34°34' E 134°50'714.4
2018-Apr-16 00:30N 34°31' E 134°42'714.9
2018-Apr-16 00:01N 34°28' E 134°33'714.9
2018-Apr-15 23:31N 34°25' E 134°25'714.5
2018-Apr-15 23:00N 34°23' E 134°16'7512.1
2018-Apr-15 16:50N 34°04' E 132°49'513.6
2018-Apr-15 16:29N 34°00' E 132°45'613.4
2018-Apr-15 16:00N 33°55' E 132°40'713.8
2018-Apr-15 15:29N 33°51' E 132°34'714.2
2018-Apr-15 15:00N 33°47' E 132°27'714.5
2018-Apr-15 14:30N 33°44' E 132°19'1414.7
2018-Apr-15 13:35N 33°42' E 132°03'116.1
2018-Apr-15 13:30N 33°42' E 132°02'815.7
2018-Apr-15 13:00N 33°44' E 131°52'815.6
2018-Apr-15 12:30N 33°46' E 131°43'815.4
2018-Apr-15 12:00N 33°47' E 131°34'815.2
2018-Apr-15 11:30N 33°48' E 131°25'714.9
2018-Apr-15 11:00N 33°50' E 131°16'714.5
2018-Apr-15 10:31N 33°53' E 131°09'714.5
2018-Apr-15 10:00N 33°58' E 131°02'611.9
2018-Apr-15 09:30N 33°55' E 130°56'611.1
2018-Apr-15 09:01N 33°60' E 130°52'815.6
2018-Apr-15 08:31N 34°07' E 130°50'815.5
2018-Apr-15 08:00N 34°15' E 130°48'714.9
2018-Apr-15 07:31N 34°22' E 130°47'  

Dump ship's entire track history